sensor_id;sensor_type;location;lat;lon;timestamp;temperature;humidity
8459;DHT22;4266;48.816;9.154;2022-08-20T00:01:00;20.00;99.90
8459;DHT22;4266;48.816;9.154;2022-08-20T00:03:29;19.90;99.90
8459;DHT22;4266;48.816;9.154;2022-08-20T00:05:56;19.90;99.90
8459;DHT22;4266;48.816;9.154;2022-08-20T00:08:20;19.90;99.90
8459;DHT22;4266;48.816;9.154;2022-08-20T00:10:46;19.80;99.90
8459;DHT22;4266;48.816;9.154;2022-08-20T00:13:13;19.70;99.90
8459;DHT22;4266;48.816;9.154;2022-08-20T00:15:38;19.70;99.90
8459;DHT22;4266;48.816;9.154;2022-08-20T00:18:04;19.70;99.90
8459;DHT22;4266;48.816;9.154;2022-08-20T00:20:33;19.40;99.90
8459;DHT22;4266;48.816;9.154;2022-08-20T00:22:56;19.40;99.90
8459;DHT22;4266;48.816;9.154;2022-08-20T00:25:22;19.40;99.90
8459;DHT22;4266;48.816;9.154;2022-08-20T00:27:47;19.40;99.90
8459;DHT22;4266;48.816;9.154;2022-08-20T00:30:13;19.30;99.90
8459;DHT22;4266;48.816;9.154;2022-08-20T00:32:57;19.20;99.90
8459;DHT22;4266;48.816;9.154;2022-08-20T00:35:22;19.10;99.90
8459;DHT22;4266;48.816;9.154;2022-08-20T00:37:46;19.10;99.90
8459;DHT22;4266;48.816;9.154;2022-08-20T00:40:13;19.10;99.90
8459;DHT22;4266;48.816;9.154;2022-08-20T00:42:43;19.10;99.90
8459;DHT22;4266;48.816;9.154;2022-08-20T00:45:08;19.10;99.90
8459;DHT22;4266;48.816;9.154;2022-08-20T00:47:34;19.10;99.90
8459;DHT22;4266;48.816;9.154;2022-08-20T00:50:00;19.20;99.90
8459;DHT22;4266;48.816;9.154;2022-08-20T00:52:25;19.20;99.90
8459;DHT22;4266;48.816;9.154;2022-08-20T00:54:53;19.20;99.90
8459;DHT22;4266;48.816;9.154;2022-08-20T00:57:25;19.30;99.90
8459;DHT22;4266;48.816;9.154;2022-08-20T00:59:51;19.20;99.90
8459;DHT22;4266;48.816;9.154;2022-08-20T01:02:16;19.30;99.90
8459;DHT22;4266;48.816;9.154;2022-08-20T01:04:41;19.40;99.90
8459;DHT22;4266;48.816;9.154;2022-08-20T01:07:08;19.30;99.90
8459;DHT22;4266;48.816;9.154;2022-08-20T01:09:34;19.40;99.90
8459;DHT22;4266;48.816;9.154;2022-08-20T01:11:59;19.40;99.90
8459;DHT22;4266;48.816;9.154;2022-08-20T01:14:25;19.40;99.90
8459;DHT22;4266;48.816;9.154;2022-08-20T01:16:54;19.40;99.90
8459;DHT22;4266;48.816;9.154;2022-08-20T01:19:20;19.40;99.90
8459;DHT22;4266;48.816;9.154;2022-08-20T01:21:46;19.50;99.90
8459;DHT22;4266;48.816;9.154;2022-08-20T01:24:16;19.40;99.90
8459;DHT22;4266;48.816;9.154;2022-08-20T01:26:42;19.40;99.90
8459;DHT22;4266;48.816;9.154;2022-08-20T01:29:09;19.30;99.90
8459;DHT22;4266;48.816;9.154;2022-08-20T01:31:34;19.30;99.90
8459;DHT22;4266;48.816;9.154;2022-08-20T01:34:00;19.30;99.90
8459;DHT22;4266;48.816;9.154;2022-08-20T01:36:27;19.40;99.90
8459;DHT22;4266;48.816;9.154;2022-08-20T01:38:51;19.30;99.90
8459;DHT22;4266;48.816;9.154;2022-08-20T01:44:17;19.30;99.90
8459;DHT22;4266;48.816;9.154;2022-08-20T01:46:42;19.40;99.90
8459;DHT22;4266;48.816;9.154;2022-08-20T01:49:20;19.40;99.90
8459;DHT22;4266;48.816;9.154;2022-08-20T01:51:47;19.40;99.90
8459;DHT22;4266;48.816;9.154;2022-08-20T01:54:12;19.50;99.90
8459;DHT22;4266;48.816;9.154;2022-08-20T01:56:49;19.50;99.90
8459;DHT22;4266;48.816;9.154;2022-08-20T01:59:04;19.50;99.90
8459;DHT22;4266;48.816;9.154;2022-08-20T02:01:31;19.50;99.90
8459;DHT22;4266;48.816;9.154;2022-08-20T02:03:55;19.50;99.90
8459;DHT22;4266;48.816;9.154;2022-08-20T02:06:26;19.50;99.90
8459;DHT22;4266;48.816;9.154;2022-08-20T02:08:47;19.60;99.90
8459;DHT22;4266;48.816;9.154;2022-08-20T02:11:12;19.50;99.90
8459;DHT22;4266;48.816;9.154;2022-08-20T02:13:38;19.50;99.90
8459;DHT22;4266;48.816;9.154;2022-08-20T02:16:05;19.50;99.90
8459;DHT22;4266;48.816;9.154;2022-08-20T02:18:31;19.50;99.90
8459;DHT22;4266;48.816;9.154;2022-08-20T02:20:57;19.50;99.90
8459;DHT22;4266;48.816;9.154;2022-08-20T02:23:22;19.50;99.90
8459;DHT22;4266;48.816;9.154;2022-08-20T02:25:49;19.40;99.90
8459;DHT22;4266;48.816;9.154;2022-08-20T02:28:15;19.50;99.90
8459;DHT22;4266;48.816;9.154;2022-08-20T02:30:42;19.40;99.90
8459;DHT22;4266;48.816;9.154;2022-08-20T02:33:08;19.40;99.90
8459;DHT22;4266;48.816;9.154;2022-08-20T02:35:32;19.40;99.90
8459;DHT22;4266;48.816;9.154;2022-08-20T02:37:57;19.40;99.90
8459;DHT22;4266;48.816;9.154;2022-08-20T02:40:24;19.40;99.90
8459;DHT22;4266;48.816;9.154;2022-08-20T02:42:49;19.50;99.90
8459;DHT22;4266;48.816;9.154;2022-08-20T02:45:15;19.50;99.90
8459;DHT22;4266;48.816;9.154;2022-08-20T02:47:41;19.50;99.90
8459;DHT22;4266;48.816;9.154;2022-08-20T02:50:09;19.50;99.90
8459;DHT22;4266;48.816;9.154;2022-08-20T02:52:32;19.50;99.90
8459;DHT22;4266;48.816;9.154;2022-08-20T02:54:59;19.60;99.90
8459;DHT22;4266;48.816;9.154;2022-08-20T02:57:25;19.50;99.90
8459;DHT22;4266;48.816;9.154;2022-08-20T02:59:51;19.60;99.90
8459;DHT22;4266;48.816;9.154;2022-08-20T03:02:17;19.60;99.90
8459;DHT22;4266;48.816;9.154;2022-08-20T03:04:43;19.50;99.90
8459;DHT22;4266;48.816;9.154;2022-08-20T03:07:10;19.50;99.90
8459;DHT22;4266;48.816;9.154;2022-08-20T03:09:35;19.50;99.90
8459;DHT22;4266;48.816;9.154;2022-08-20T03:12:01;19.50;99.90
8459;DHT22;4266;48.816;9.154;2022-08-20T03:14:27;19.50;99.90
8459;DHT22;4266;48.816;9.154;2022-08-20T03:16:53;19.40;99.90
8459;DHT22;4266;48.816;9.154;2022-08-20T03:19:19;19.50;99.90
8459;DHT22;4266;48.816;9.154;2022-08-20T03:21:44;19.50;99.90
8459;DHT22;4266;48.816;9.154;2022-08-20T03:24:10;19.50;99.90
8459;DHT22;4266;48.816;9.154;2022-08-20T03:26:36;19.40;99.90
8459;DHT22;4266;48.816;9.154;2022-08-20T03:29:02;19.40;99.90
8459;DHT22;4266;48.816;9.154;2022-08-20T03:31:28;19.40;99.90
8459;DHT22;4266;48.816;9.154;2022-08-20T03:33:54;19.40;99.90
8459;DHT22;4266;48.816;9.154;2022-08-20T03:36:21;19.40;99.90
8459;DHT22;4266;48.816;9.154;2022-08-20T03:38:47;19.40;99.90
8459;DHT22;4266;48.816;9.154;2022-08-20T03:41:14;19.40;99.90
8459;DHT22;4266;48.816;9.154;2022-08-20T03:43:39;19.40;99.90
8459;DHT22;4266;48.816;9.154;2022-08-20T03:46:06;19.30;99.90
8459;DHT22;4266;48.816;9.154;2022-08-20T03:48:31;19.30;99.90
8459;DHT22;4266;48.816;9.154;2022-08-20T03:50:57;19.30;99.90
8459;DHT22;4266;48.816;9.154;2022-08-20T03:53:23;19.30;99.90
8459;DHT22;4266;48.816;9.154;2022-08-20T03:55:50;19.30;99.90
8459;DHT22;4266;48.816;9.154;2022-08-20T03:58:15;19.30;99.90
8459;DHT22;4266;48.816;9.154;2022-08-20T04:00:44;19.30;99.90
8459;DHT22;4266;48.816;9.154;2022-08-20T04:03:08;19.30;99.90
8459;DHT22;4266;48.816;9.154;2022-08-20T04:05:34;19.40;99.90
8459;DHT22;4266;48.816;9.154;2022-08-20T04:08:00;19.40;99.90
8459;DHT22;4266;48.816;9.154;2022-08-20T04:10:26;19.40;99.90
8459;DHT22;4266;48.816;9.154;2022-08-20T04:12:51;19.40;99.90
8459;DHT22;4266;48.816;9.154;2022-08-20T04:15:17;19.40;99.90
8459;DHT22;4266;48.816;9.154;2022-08-20T04:17:45;19.40;99.90
8459;DHT22;4266;48.816;9.154;2022-08-20T04:20:11;19.40;99.90
8459;DHT22;4266;48.816;9.154;2022-08-20T04:22:37;19.40;99.90
8459;DHT22;4266;48.816;9.154;2022-08-20T04:25:04;19.40;99.90
8459;DHT22;4266;48.816;9.154;2022-08-20T04:27:30;19.50;99.90
8459;DHT22;4266;48.816;9.154;2022-08-20T04:29:56;19.40;99.90
8459;DHT22;4266;48.816;9.154;2022-08-20T04:32:22;19.40;99.90
8459;DHT22;4266;48.816;9.154;2022-08-20T04:34:47;19.40;99.90
8459;DHT22;4266;48.816;9.154;2022-08-20T04:37:13;19.40;99.90
8459;DHT22;4266;48.816;9.154;2022-08-20T04:39:39;19.40;99.90
8459;DHT22;4266;48.816;9.154;2022-08-20T04:42:04;19.50;99.90
8459;DHT22;4266;48.816;9.154;2022-08-20T04:44:31;19.50;99.90
8459;DHT22;4266;48.816;9.154;2022-08-20T04:46:57;19.50;99.90
8459;DHT22;4266;48.816;9.154;2022-08-20T04:49:22;19.50;99.90
8459;DHT22;4266;48.816;9.154;2022-08-20T04:51:48;19.60;99.90
8459;DHT22;4266;48.816;9.154;2022-08-20T04:54:14;19.60;99.90
8459;DHT22;4266;48.816;9.154;2022-08-20T04:56:39;19.60;99.90
8459;DHT22;4266;48.816;9.154;2022-08-20T04:59:05;19.50;99.90
8459;DHT22;4266;48.816;9.154;2022-08-20T05:01:31;19.60;99.90
8459;DHT22;4266;48.816;9.154;2022-08-20T05:03:56;19.60;99.90
8459;DHT22;4266;48.816;9.154;2022-08-20T05:06:23;19.70;99.90
8459;DHT22;4266;48.816;9.154;2022-08-20T05:08:48;19.70;99.90
8459;DHT22;4266;48.816;9.154;2022-08-20T05:11:14;19.70;99.90
8459;DHT22;4266;48.816;9.154;2022-08-20T05:13:40;19.60;99.90
8459;DHT22;4266;48.816;9.154;2022-08-20T05:16:06;19.70;99.90
8459;DHT22;4266;48.816;9.154;2022-08-20T05:18:33;19.60;99.90
8459;DHT22;4266;48.816;9.154;2022-08-20T05:21:00;19.60;99.90
8459;DHT22;4266;48.816;9.154;2022-08-20T05:23:25;19.60;99.90
8459;DHT22;4266;48.816;9.154;2022-08-20T05:25:52;19.60;99.90
8459;DHT22;4266;48.816;9.154;2022-08-20T05:28:22;19.60;99.90
8459;DHT22;4266;48.816;9.154;2022-08-20T05:30:47;19.60;99.90
8459;DHT22;4266;48.816;9.154;2022-08-20T05:33:13;19.60;99.90
8459;DHT22;4266;48.816;9.154;2022-08-20T05:35:38;19.60;99.90
8459;DHT22;4266;48.816;9.154;2022-08-20T05:38:07;19.60;99.90
8459;DHT22;4266;48.816;9.154;2022-08-20T05:40:31;19.70;99.90
8459;DHT22;4266;48.816;9.154;2022-08-20T05:42:57;19.70;99.90
8459;DHT22;4266;48.816;9.154;2022-08-20T05:45:23;19.80;99.90
8459;DHT22;4266;48.816;9.154;2022-08-20T05:47:50;19.80;99.90
8459;DHT22;4266;48.816;9.154;2022-08-20T05:50:16;19.80;99.90
8459;DHT22;4266;48.816;9.154;2022-08-20T05:52:42;19.80;99.90
8459;DHT22;4266;48.816;9.154;2022-08-20T05:55:08;19.80;99.90
8459;DHT22;4266;48.816;9.154;2022-08-20T05:57:33;19.90;99.90
8459;DHT22;4266;48.816;9.154;2022-08-20T06:00:00;20.20;99.90
8459;DHT22;4266;48.816;9.154;2022-08-20T06:02:25;20.20;99.90
8459;DHT22;4266;48.816;9.154;2022-08-20T06:04:57;20.30;99.90
8459;DHT22;4266;48.816;9.154;2022-08-20T06:07:23;20.60;99.90
8459;DHT22;4266;48.816;9.154;2022-08-20T06:09:50;20.90;99.90
8459;DHT22;4266;48.816;9.154;2022-08-20T06:12:15;20.90;99.90
8459;DHT22;4266;48.816;9.154;2022-08-20T06:14:41;21.00;99.90
8459;DHT22;4266;48.816;9.154;2022-08-20T06:17:10;21.30;99.90
8459;DHT22;4266;48.816;9.154;2022-08-20T06:19:34;21.60;99.90
8459;DHT22;4266;48.816;9.154;2022-08-20T06:22:01;21.60;99.90
8459;DHT22;4266;48.816;9.154;2022-08-20T06:24:26;21.60;99.90
8459;DHT22;4266;48.816;9.154;2022-08-20T06:26:55;21.70;99.90
8459;DHT22;4266;48.816;9.154;2022-08-20T06:29:20;21.60;99.90
8459;DHT22;4266;48.816;9.154;2022-08-20T06:31:46;21.70;99.90
8459;DHT22;4266;48.816;9.154;2022-08-20T06:34:12;21.60;99.90
8459;DHT22;4266;48.816;9.154;2022-08-20T06:36:38;21.60;99.90
8459;DHT22;4266;48.816;9.154;2022-08-20T06:39:04;21.60;99.90
8459;DHT22;4266;48.816;9.154;2022-08-20T06:41:29;21.60;99.90
8459;DHT22;4266;48.816;9.154;2022-08-20T06:43:55;21.60;99.90
8459;DHT22;4266;48.816;9.154;2022-08-20T06:46:21;21.60;99.90
8459;DHT22;4266;48.816;9.154;2022-08-20T06:48:48;21.60;99.90
8459;DHT22;4266;48.816;9.154;2022-08-20T06:51:13;21.60;99.90
8459;DHT22;4266;48.816;9.154;2022-08-20T06:53:40;21.50;99.90
8459;DHT22;4266;48.816;9.154;2022-08-20T06:56:05;21.50;99.90
8459;DHT22;4266;48.816;9.154;2022-08-20T06:58:31;21.50;99.90
8459;DHT22;4266;48.816;9.154;2022-08-20T07:00:57;21.40;99.90
8459;DHT22;4266;48.816;9.154;2022-08-20T07:03:24;21.50;99.90
8459;DHT22;4266;48.816;9.154;2022-08-20T07:05:50;21.40;99.90
8459;DHT22;4266;48.816;9.154;2022-08-20T07:08:15;21.40;99.90
8459;DHT22;4266;48.816;9.154;2022-08-20T07:10:41;21.40;99.90
8459;DHT22;4266;48.816;9.154;2022-08-20T07:13:09;21.40;99.90
8459;DHT22;4266;48.816;9.154;2022-08-20T07:15:34;21.30;99.90
8459;DHT22;4266;48.816;9.154;2022-08-20T07:18:01;21.40;99.90
8459;DHT22;4266;48.816;9.154;2022-08-20T07:20:25;21.40;99.90
8459;DHT22;4266;48.816;9.154;2022-08-20T07:22:51;21.50;99.90
8459;DHT22;4266;48.816;9.154;2022-08-20T07:25:17;21.50;99.90
8459;DHT22;4266;48.816;9.154;2022-08-20T07:27:43;21.60;99.90
8459;DHT22;4266;48.816;9.154;2022-08-20T07:30:13;21.80;99.90
8459;DHT22;4266;48.816;9.154;2022-08-20T07:32:42;21.90;99.90
8459;DHT22;4266;48.816;9.154;2022-08-20T07:35:09;22.00;99.90
8459;DHT22;4266;48.816;9.154;2022-08-20T07:37:37;22.30;99.90
8459;DHT22;4266;48.816;9.154;2022-08-20T07:40:04;22.20;99.90
8459;DHT22;4266;48.816;9.154;2022-08-20T07:42:30;22.50;99.90
8459;DHT22;4266;48.816;9.154;2022-08-20T07:44:56;22.60;99.70
8459;DHT22;4266;48.816;9.154;2022-08-20T07:47:21;22.60;99.50
8459;DHT22;4266;48.816;9.154;2022-08-20T07:49:48;23.30;99.10
8459;DHT22;4266;48.816;9.154;2022-08-20T07:52:13;23.30;99.10
8459;DHT22;4266;48.816;9.154;2022-08-20T07:54:39;23.30;98.30
8459;DHT22;4266;48.816;9.154;2022-08-20T07:57:05;23.60;98.30
8459;DHT22;4266;48.816;9.154;2022-08-20T07:59:30;24.20;97.70
8459;DHT22;4266;48.816;9.154;2022-08-20T08:01:56;24.30;97.10
8459;DHT22;4266;48.816;9.154;2022-08-20T08:04:22;25.20;96.60
8459;DHT22;4266;48.816;9.154;2022-08-20T08:06:47;25.60;96.20
8459;DHT22;4266;48.816;9.154;2022-08-20T08:09:13;26.10;95.20
8459;DHT22;4266;48.816;9.154;2022-08-20T08:11:40;26.50;94.50
8459;DHT22;4266;48.816;9.154;2022-08-20T08:14:06;28.10;93.80
8459;DHT22;4266;48.816;9.154;2022-08-20T08:16:32;28.20;92.30
8459;DHT22;4266;48.816;9.154;2022-08-20T08:18:58;28.10;92.30
8459;DHT22;4266;48.816;9.154;2022-08-20T08:21:23;28.30;92.10
8459;DHT22;4266;48.816;9.154;2022-08-20T08:23:49;28.20;91.70
8459;DHT22;4266;48.816;9.154;2022-08-20T08:26:15;27.50;91.90
8459;DHT22;4266;48.816;9.154;2022-08-20T08:28:40;27.20;92.50
8459;DHT22;4266;48.816;9.154;2022-08-20T08:31:06;28.10;92.00
8459;DHT22;4266;48.816;9.154;2022-08-20T08:33:32;27.70;91.20
8459;DHT22;4266;48.816;9.154;2022-08-20T08:36:03;27.80;91.20
8459;DHT22;4266;48.816;9.154;2022-08-20T08:38:26;27.80;91.10
8459;DHT22;4266;48.816;9.154;2022-08-20T08:40:53;28.60;90.70
8459;DHT22;4266;48.816;9.154;2022-08-20T08:43:17;27.70;90.40
8459;DHT22;4266;48.816;9.154;2022-08-20T08:45:44;27.70;91.40
8459;DHT22;4266;48.816;9.154;2022-08-20T08:48:12;27.50;90.80
8459;DHT22;4266;48.816;9.154;2022-08-20T08:50:37;27.50;90.80
8459;DHT22;4266;48.816;9.154;2022-08-20T08:53:02;28.20;90.80
8459;DHT22;4266;48.816;9.154;2022-08-20T08:55:28;28.00;90.40
8459;DHT22;4266;48.816;9.154;2022-08-20T08:57:55;27.50;90.20
8459;DHT22;4266;48.816;9.154;2022-08-20T09:00:20;27.30;90.90
8459;DHT22;4266;48.816;9.154;2022-08-20T09:02:59;27.40;91.00
8459;DHT22;4266;48.816;9.154;2022-08-20T09:05:22;27.30;91.00
8459;DHT22;4266;48.816;9.154;2022-08-20T09:07:48;27.80;91.10
8459;DHT22;4266;48.816;9.154;2022-08-20T09:10:13;30.00;90.10
8459;DHT22;4266;48.816;9.154;2022-08-20T09:12:39;30.90;85.90
8459;DHT22;4266;48.816;9.154;2022-08-20T09:15:06;29.70;87.20
8459;DHT22;4266;48.816;9.154;2022-08-20T09:17:33;29.10;87.30
8459;DHT22;4266;48.816;9.154;2022-08-20T09:19:59;29.10;88.10
8459;DHT22;4266;48.816;9.154;2022-08-20T09:22:25;29.10;88.10
8459;DHT22;4266;48.816;9.154;2022-08-20T09:24:51;31.20;85.90
8459;DHT22;4266;48.816;9.154;2022-08-20T09:27:16;32.30;80.70
8459;DHT22;4266;48.816;9.154;2022-08-20T09:29:42;32.10;79.30
8459;DHT22;4266;48.816;9.154;2022-08-20T09:32:12;30.60;80.40
8459;DHT22;4266;48.816;9.154;2022-08-20T09:34:37;32.10;79.70
8459;DHT22;4266;48.816;9.154;2022-08-20T09:37:02;32.30;78.20
8459;DHT22;4266;48.816;9.154;2022-08-20T09:39:29;30.80;79.40
8459;DHT22;4266;48.816;9.154;2022-08-20T09:42:04;30.80;79.50
8459;DHT22;4266;48.816;9.154;2022-08-20T09:44:21;30.80;79.10
8459;DHT22;4266;48.816;9.154;2022-08-20T09:46:46;29.90;79.50
8459;DHT22;4266;48.816;9.154;2022-08-20T09:49:12;29.10;80.20
8459;DHT22;4266;48.816;9.154;2022-08-20T09:51:38;28.80;80.50
8459;DHT22;4266;48.816;9.154;2022-08-20T09:54:04;27.90;82.80
8459;DHT22;4266;48.816;9.154;2022-08-20T09:56:30;27.80;82.70
8459;DHT22;4266;48.816;9.154;2022-08-20T09:58:56;27.60;82.30
8459;DHT22;4266;48.816;9.154;2022-08-20T10:01:21;27.70;82.80
8459;DHT22;4266;48.816;9.154;2022-08-20T10:03:47;28.30;81.20
8459;DHT22;4266;48.816;9.154;2022-08-20T10:06:13;30.10;80.50
8459;DHT22;4266;48.816;9.154;2022-08-20T10:08:38;31.20;79.10
8459;DHT22;4266;48.816;9.154;2022-08-20T10:11:04;31.20;79.10
8459;DHT22;4266;48.816;9.154;2022-08-20T10:13:30;31.50;78.00
8459;DHT22;4266;48.816;9.154;2022-08-20T10:15:56;30.70;78.00
8459;DHT22;4266;48.816;9.154;2022-08-20T10:18:21;30.00;79.00
8459;DHT22;4266;48.816;9.154;2022-08-20T10:20:47;29.70;78.90
8459;DHT22;4266;48.816;9.154;2022-08-20T10:23:13;29.70;78.40
8459;DHT22;4266;48.816;9.154;2022-08-20T10:25:40;29.00;77.60
8459;DHT22;4266;48.816;9.154;2022-08-20T10:28:05;29.00;77.50
8459;DHT22;4266;48.816;9.154;2022-08-20T10:30:31;29.30;78.00
8459;DHT22;4266;48.816;9.154;2022-08-20T10:32:57;32.40;75.70
8459;DHT22;4266;48.816;9.154;2022-08-20T10:35:23;32.30;75.60
8459;DHT22;4266;48.816;9.154;2022-08-20T10:37:49;33.70;73.40
8459;DHT22;4266;48.816;9.154;2022-08-20T10:40:15;34.20;73.40
8459;DHT22;4266;48.816;9.154;2022-08-20T10:42:41;34.80;72.20
8459;DHT22;4266;48.816;9.154;2022-08-20T10:45:07;36.20;70.00
8459;DHT22;4266;48.816;9.154;2022-08-20T10:47:33;35.70;68.70
8459;DHT22;4266;48.816;9.154;2022-08-20T10:49:59;35.70;66.80
8459;DHT22;4266;48.816;9.154;2022-08-20T10:52:24;34.90;69.30
8459;DHT22;4266;48.816;9.154;2022-08-20T10:54:50;35.50;67.30
8459;DHT22;4266;48.816;9.154;2022-08-20T10:57:21;33.60;67.80
8459;DHT22;4266;48.816;9.154;2022-08-20T10:59:45;33.60;67.80
8459;DHT22;4266;48.816;9.154;2022-08-20T11:02:11;33.50;67.30
8459;DHT22;4266;48.816;9.154;2022-08-20T11:04:37;33.50;67.30
8459;DHT22;4266;48.816;9.154;2022-08-20T11:07:17;32.30;65.70
8459;DHT22;4266;48.816;9.154;2022-08-20T11:09:44;30.50;67.50
8459;DHT22;4266;48.816;9.154;2022-08-20T11:12:08;30.40;67.40
8459;DHT22;4266;48.816;9.154;2022-08-20T11:14:33;29.40;69.50
8459;DHT22;4266;48.816;9.154;2022-08-20T11:17:01;29.10;70.80
8459;DHT22;4266;48.816;9.154;2022-08-20T11:19:26;29.10;70.80
8459;DHT22;4266;48.816;9.154;2022-08-20T11:21:52;28.70;72.30
8459;DHT22;4266;48.816;9.154;2022-08-20T11:24:17;28.60;71.80
8459;DHT22;4266;48.816;9.154;2022-08-20T11:26:44;28.60;72.40
8459;DHT22;4266;48.816;9.154;2022-08-20T11:29:09;28.90;72.70
8459;DHT22;4266;48.816;9.154;2022-08-20T11:31:34;29.80;71.70
8459;DHT22;4266;48.816;9.154;2022-08-20T11:34:00;29.50;70.40
8459;DHT22;4266;48.816;9.154;2022-08-20T11:36:26;29.80;71.70
8459;DHT22;4266;48.816;9.154;2022-08-20T11:38:51;29.70;70.70
8459;DHT22;4266;48.816;9.154;2022-08-20T11:41:17;29.10;70.50
8459;DHT22;4266;48.816;9.154;2022-08-20T11:43:44;28.30;72.00
8459;DHT22;4266;48.816;9.154;2022-08-20T11:46:10;28.20;72.90
8459;DHT22;4266;48.816;9.154;2022-08-20T11:48:36;28.20;72.60
8459;DHT22;4266;48.816;9.154;2022-08-20T11:51:01;27.70;72.90
8459;DHT22;4266;48.816;9.154;2022-08-20T11:53:27;27.50;73.20
8459;DHT22;4266;48.816;9.154;2022-08-20T11:55:53;27.20;73.50
8459;DHT22;4266;48.816;9.154;2022-08-20T11:58:19;27.20;73.20
8459;DHT22;4266;48.816;9.154;2022-08-20T12:00:45;26.80;73.90
8459;DHT22;4266;48.816;9.154;2022-08-20T12:03:12;26.50;74.30
8459;DHT22;4266;48.816;9.154;2022-08-20T12:05:38;26.50;74.20
8459;DHT22;4266;48.816;9.154;2022-08-20T12:08:03;26.30;75.30
8459;DHT22;4266;48.816;9.154;2022-08-20T12:10:29;26.20;75.60
8459;DHT22;4266;48.816;9.154;2022-08-20T12:12:55;26.20;75.80
8459;DHT22;4266;48.816;9.154;2022-08-20T12:15:20;26.30;75.80
8459;DHT22;4266;48.816;9.154;2022-08-20T12:17:46;26.00;75.90
8459;DHT22;4266;48.816;9.154;2022-08-20T12:20:12;25.90;77.20
8459;DHT22;4266;48.816;9.154;2022-08-20T12:22:37;26.10;76.90
8459;DHT22;4266;48.816;9.154;2022-08-20T12:25:04;26.30;78.00
8459;DHT22;4266;48.816;9.154;2022-08-20T12:27:30;26.40;77.70
8459;DHT22;4266;48.816;9.154;2022-08-20T12:29:57;26.30;77.90
8459;DHT22;4266;48.816;9.154;2022-08-20T12:32:23;26.40;77.50
8459;DHT22;4266;48.816;9.154;2022-08-20T12:34:48;26.40;77.50
8459;DHT22;4266;48.816;9.154;2022-08-20T12:37:15;26.30;78.10
8459;DHT22;4266;48.816;9.154;2022-08-20T12:39:40;26.40;78.30
8459;DHT22;4266;48.816;9.154;2022-08-20T12:42:05;26.30;79.80
8459;DHT22;4266;48.816;9.154;2022-08-20T12:44:32;26.10;81.30
8459;DHT22;4266;48.816;9.154;2022-08-20T12:47:09;26.40;80.80
8459;DHT22;4266;48.816;9.154;2022-08-20T12:49:34;26.30;80.70
8459;DHT22;4266;48.816;9.154;2022-08-20T12:52:00;26.00;81.30
8459;DHT22;4266;48.816;9.154;2022-08-20T12:54:25;25.80;84.60
8459;DHT22;4266;48.816;9.154;2022-08-20T12:56:52;25.60;87.10
8459;DHT22;4266;48.816;9.154;2022-08-20T12:59:17;25.60;87.10
8459;DHT22;4266;48.816;9.154;2022-08-20T13:01:43;25.60;88.20
8459;DHT22;4266;48.816;9.154;2022-08-20T13:04:09;25.60;90.20
8459;DHT22;4266;48.816;9.154;2022-08-20T13:06:35;25.50;90.10
8459;DHT22;4266;48.816;9.154;2022-08-20T13:09:02;25.20;91.40
8459;DHT22;4266;48.816;9.154;2022-08-20T13:11:27;25.20;91.30
8459;DHT22;4266;48.816;9.154;2022-08-20T13:13:53;25.40;91.90
8459;DHT22;4266;48.816;9.154;2022-08-20T13:16:19;25.60;92.30
8459;DHT22;4266;48.816;9.154;2022-08-20T13:18:45;25.50;92.30
8459;DHT22;4266;48.816;9.154;2022-08-20T13:21:11;26.10;92.30
8459;DHT22;4266;48.816;9.154;2022-08-20T13:23:37;26.10;92.30
8459;DHT22;4266;48.816;9.154;2022-08-20T13:26:03;26.50;92.00
8459;DHT22;4266;48.816;9.154;2022-08-20T13:28:29;26.50;91.90
8459;DHT22;4266;48.816;9.154;2022-08-20T13:30:54;26.30;92.30
8459;DHT22;4266;48.816;9.154;2022-08-20T13:33:20;26.30;92.10
8459;DHT22;4266;48.816;9.154;2022-08-20T13:35:46;26.50;92.00
8459;DHT22;4266;48.816;9.154;2022-08-20T13:38:12;26.10;92.50
8459;DHT22;4266;48.816;9.154;2022-08-20T13:40:37;25.60;93.50
8459;DHT22;4266;48.816;9.154;2022-08-20T13:43:03;25.20;93.50
8459;DHT22;4266;48.816;9.154;2022-08-20T13:45:29;25.90;93.40
8459;DHT22;4266;48.816;9.154;2022-08-20T13:47:55;25.90;93.40
8459;DHT22;4266;48.816;9.154;2022-08-20T13:50:21;26.40;92.80
8459;DHT22;4266;48.816;9.154;2022-08-20T13:52:46;26.70;92.30
8459;DHT22;4266;48.816;9.154;2022-08-20T13:55:14;26.40;92.50
8459;DHT22;4266;48.816;9.154;2022-08-20T13:57:38;26.40;92.50
8459;DHT22;4266;48.816;9.154;2022-08-20T14:00:05;26.20;91.50
8459;DHT22;4266;48.816;9.154;2022-08-20T14:02:31;25.80;92.40
8459;DHT22;4266;48.816;9.154;2022-08-20T14:04:56;25.80;91.90
8459;DHT22;4266;48.816;9.154;2022-08-20T14:07:24;26.00;91.80
8459;DHT22;4266;48.816;9.154;2022-08-20T14:09:52;25.00;92.80
8459;DHT22;4266;48.816;9.154;2022-08-20T14:12:16;24.80;93.20
8459;DHT22;4266;48.816;9.154;2022-08-20T14:14:42;24.80;93.20
8459;DHT22;4266;48.816;9.154;2022-08-20T14:17:19;25.10;92.40
8459;DHT22;4266;48.816;9.154;2022-08-20T14:19:44;25.10;92.40
8459;DHT22;4266;48.816;9.154;2022-08-20T14:22:09;25.40;91.80
8459;DHT22;4266;48.816;9.154;2022-08-20T14:24:34;25.50;92.00
8459;DHT22;4266;48.816;9.154;2022-08-20T14:27:02;25.30;92.10
8459;DHT22;4266;48.816;9.154;2022-08-20T14:29:27;25.30;92.00
8459;DHT22;4266;48.816;9.154;2022-08-20T14:31:52;25.10;92.10
8459;DHT22;4266;48.816;9.154;2022-08-20T14:34:19;25.30;91.70
8459;DHT22;4266;48.816;9.154;2022-08-20T14:36:44;25.30;91.70
8459;DHT22;4266;48.816;9.154;2022-08-20T14:39:10;25.20;91.40
8459;DHT22;4266;48.816;9.154;2022-08-20T14:41:36;25.10;91.10
8459;DHT22;4266;48.816;9.154;2022-08-20T14:44:03;25.10;91.10
8459;DHT22;4266;48.816;9.154;2022-08-20T14:46:28;25.40;91.10
8459;DHT22;4266;48.816;9.154;2022-08-20T14:48:54;25.50;91.20
8459;DHT22;4266;48.816;9.154;2022-08-20T14:51:20;25.20;90.50
8459;DHT22;4266;48.816;9.154;2022-08-20T14:53:46;25.30;90.50
8459;DHT22;4266;48.816;9.154;2022-08-20T14:56:13;25.50;90.40
8459;DHT22;4266;48.816;9.154;2022-08-20T14:58:38;25.50;90.40
8459;DHT22;4266;48.816;9.154;2022-08-20T15:01:04;25.40;90.30
8459;DHT22;4266;48.816;9.154;2022-08-20T15:03:30;25.50;90.50
8459;DHT22;4266;48.816;9.154;2022-08-20T15:05:56;25.40;90.10
8459;DHT22;4266;48.816;9.154;2022-08-20T15:08:22;25.70;89.40
8459;DHT22;4266;48.816;9.154;2022-08-20T15:10:48;25.70;89.40
8459;DHT22;4266;48.816;9.154;2022-08-20T15:13:13;25.80;89.80
8459;DHT22;4266;48.816;9.154;2022-08-20T15:15:40;26.10;90.20
8459;DHT22;4266;48.816;9.154;2022-08-20T15:18:06;26.20;89.00
8459;DHT22;4266;48.816;9.154;2022-08-20T15:20:33;26.10;89.30
8459;DHT22;4266;48.816;9.154;2022-08-20T15:22:58;26.00;89.20
8459;DHT22;4266;48.816;9.154;2022-08-20T15:25:25;26.30;90.00
8459;DHT22;4266;48.816;9.154;2022-08-20T15:27:50;25.50;90.40
8459;DHT22;4266;48.816;9.154;2022-08-20T15:30:17;25.60;90.80
8459;DHT22;4266;48.816;9.154;2022-08-20T15:32:42;25.60;90.80
8459;DHT22;4266;48.816;9.154;2022-08-20T15:35:08;25.60;91.30
8459;DHT22;4266;48.816;9.154;2022-08-20T15:37:33;25.80;90.70
8459;DHT22;4266;48.816;9.154;2022-08-20T15:40:01;25.50;90.10
8459;DHT22;4266;48.816;9.154;2022-08-20T15:42:25;25.50;88.20
8459;DHT22;4266;48.816;9.154;2022-08-20T15:44:50;25.50;86.50
8459;DHT22;4266;48.816;9.154;2022-08-20T15:47:23;25.50;78.70
8459;DHT22;4266;48.816;9.154;2022-08-20T15:49:44;25.80;76.10
8459;DHT22;4266;48.816;9.154;2022-08-20T15:52:10;26.00;75.50
8459;DHT22;4266;48.816;9.154;2022-08-20T15:54:35;26.20;73.60
8459;DHT22;4266;48.816;9.154;2022-08-20T15:57:08;26.30;72.40